Hauptseite
METAR-TAF:

METAR-TAF

Flughäfen :

Heeresflugplatz Celle

Celle, Deutschland

Breite: 52-36N, Länge: 010-01E, Höhe: 39 m

Beobachtung

Neuester Wetterbericht von vor 43 Minuten, um 14:20 UTC
Wind 6 kt aus West/Südwest
Temperatur 7°C
Luftfeuchtigkeit 70%
Luftdruck 1021 hPa
Sichtweite 10 km oder mehr
Aufgelockert bewölkt in der Höhe von 1800 ft
Durchbrochene Bewölkung in der Höhe von 3300 ft

METAR: ETHC 281420Z 24006KT 9999 SCT018 BKN033 07/02 Q1021 BLU BLU+

Zeit: 16:03 (15:03 UTC)

Prognose

Neuester Wetterbericht von vor 43 Minuten, um 14:20 UTC
Gültige Prognose vom 28 um 15 UTC bis 28 um 24 UTC
Wind 7 kt aus Südwest
Sichtweite 10 km oder mehr
Leicht bewölkt in der Höhe von 2000 ft
Aufgelockert bewölkt in der Höhe von 4000 ft

TAF: ETHC 281420Z 2815/2824 23007KT 9999 NSW FEW020 SCT040

Wetterbeobachtungen und Prognosen von mehr als 4000 Flughäfen (METAR und TAF Bericht).

Die verfügbaren Stationen werden durch gelbe und rote Markierungen auf der Karte dargestellt.

Führen Sie die Maus auf sie, um den Namen der Station zu sehen.

Darauf klicken, um die Beobachtung von Wetterbeobachtungen und Prognosen zu sehen.

Um die Karte zu ändern : klicken Sie auf den grünen Tasten mit einem schwarzen Kreuz Zum Vergrößern, auf den grünen Button mit einem Gedankenstrich zu verkleinern, oder auf die grünen Pfeile für benachbarte Karten.


METAR-TAF: